sensor_id;sensor_type;location;lat;lon;timestamp;P1;durP1;ratioP1;P2;durP2;ratioP2
27758;SDS011;15148;48.972;12.794;2024-02-26T00:02:27;2.45;;;1.35;;
27758;SDS011;15148;48.972;12.794;2024-02-26T00:07:29;1.95;;;1.70;;
27758;SDS011;15148;48.972;12.794;2024-02-26T00:12:31;2.90;;;2.00;;
27758;SDS011;15148;48.972;12.794;2024-02-26T00:17:33;3.30;;;1.90;;
27758;SDS011;15148;48.972;12.794;2024-02-26T00:22:35;1.58;;;1.40;;
27758;SDS011;15148;48.972;12.794;2024-02-26T00:27:38;3.63;;;1.60;;
27758;SDS011;15148;48.972;12.794;2024-02-26T00:32:41;1.75;;;1.45;;
27758;SDS011;15148;48.972;12.794;2024-02-26T00:37:43;3.50;;;1.88;;
27758;SDS011;15148;48.972;12.794;2024-02-26T00:42:45;2.22;;;1.85;;
27758;SDS011;15148;48.972;12.794;2024-02-26T00:47:49;2.92;;;1.98;;
27758;SDS011;15148;48.972;12.794;2024-02-26T00:52:51;3.15;;;1.83;;
27758;SDS011;15148;48.972;12.794;2024-02-26T00:57:53;2.78;;;1.77;;
27758;SDS011;15148;48.972;12.794;2024-02-26T01:02:55;3.17;;;1.65;;
27758;SDS011;15148;48.972;12.794;2024-02-26T01:07:58;2.17;;;1.63;;
27758;SDS011;15148;48.972;12.794;2024-02-26T01:13:02;2.08;;;1.60;;
27758;SDS011;15148;48.972;12.794;2024-02-26T01:18:05;2.45;;;2.15;;
27758;SDS011;15148;48.972;12.794;2024-02-26T01:23:07;2.55;;;1.55;;
27758;SDS011;15148;48.972;12.794;2024-02-26T01:28:09;1.80;;;1.50;;
27758;SDS011;15148;48.972;12.794;2024-02-26T01:33:10;1.77;;;1.40;;
27758;SDS011;15148;48.972;12.794;2024-02-26T01:38:13;5.10;;;1.50;;
27758;SDS011;15148;48.972;12.794;2024-02-26T01:43:15;3.38;;;1.55;;
27758;SDS011;15148;48.972;12.794;2024-02-26T01:48:16;1.30;;;1.20;;
27758;SDS011;15148;48.972;12.794;2024-02-26T01:53:19;1.10;;;1.00;;
27758;SDS011;15148;48.972;12.794;2024-02-26T01:58:21;2.10;;;1.90;;
27758;SDS011;15148;48.972;12.794;2024-02-26T02:03:23;0.77;;;0.57;;
27758;SDS011;15148;48.972;12.794;2024-02-26T02:08:26;0.52;;;0.45;;
27758;SDS011;15148;48.972;12.794;2024-02-26T02:13:28;0.52;;;0.43;;
27758;SDS011;15148;48.972;12.794;2024-02-26T02:18:30;3.55;;;2.20;;
27758;SDS011;15148;48.972;12.794;2024-02-26T02:23:33;0.60;;;0.60;;
27758;SDS011;15148;48.972;12.794;2024-02-26T02:28:35;2.10;;;0.40;;
27758;SDS011;15148;48.972;12.794;2024-02-26T02:33:37;0.63;;;0.60;;
27758;SDS011;15148;48.972;12.794;2024-02-26T02:38:48;5.25;;;0.68;;
27758;SDS011;15148;48.972;12.794;2024-02-26T02:43:53;1.15;;;0.70;;
27758;SDS011;15148;48.972;12.794;2024-02-26T02:48:55;4.82;;;0.63;;
27758;SDS011;15148;48.972;12.794;2024-02-26T02:53:57;0.57;;;0.55;;
27758;SDS011;15148;48.972;12.794;2024-02-26T02:58:59;1.23;;;0.60;;
27758;SDS011;15148;48.972;12.794;2024-02-26T03:04:01;1.30;;;0.75;;
27758;SDS011;15148;48.972;12.794;2024-02-26T03:09:03;1.20;;;0.40;;
27758;SDS011;15148;48.972;12.794;2024-02-26T03:14:05;0.85;;;0.65;;
27758;SDS011;15148;48.972;12.794;2024-02-26T03:19:07;1.02;;;0.60;;
27758;SDS011;15148;48.972;12.794;2024-02-26T03:24:10;0.50;;;0.40;;
27758;SDS011;15148;48.972;12.794;2024-02-26T03:29:12;5.10;;;0.70;;
27758;SDS011;15148;48.972;12.794;2024-02-26T03:34:14;1.48;;;0.65;;
27758;SDS011;15148;48.972;12.794;2024-02-26T03:39:16;0.95;;;0.70;;
27758;SDS011;15148;48.972;12.794;2024-02-26T03:44:18;0.63;;;0.52;;
27758;SDS011;15148;48.972;12.794;2024-02-26T03:49:20;1.48;;;0.60;;
27758;SDS011;15148;48.972;12.794;2024-02-26T03:54:23;0.40;;;0.40;;
27758;SDS011;15148;48.972;12.794;2024-02-26T03:59:25;0.57;;;0.57;;
27758;SDS011;15148;48.972;12.794;2024-02-26T04:04:27;0.60;;;0.35;;
27758;SDS011;15148;48.972;12.794;2024-02-26T04:09:33;1.23;;;0.70;;
27758;SDS011;15148;48.972;12.794;2024-02-26T04:14:35;1.35;;;0.77;;
27758;SDS011;15148;48.972;12.794;2024-02-26T04:19:37;0.43;;;0.43;;
27758;SDS011;15148;48.972;12.794;2024-02-26T04:24:40;0.50;;;0.50;;
27758;SDS011;15148;48.972;12.794;2024-02-26T04:29:42;0.95;;;0.43;;
27758;SDS011;15148;48.972;12.794;2024-02-26T04:34:44;3.45;;;0.88;;
27758;SDS011;15148;48.972;12.794;2024-02-26T04:39:46;0.50;;;0.50;;
27758;SDS011;15148;48.972;12.794;2024-02-26T04:44:51;1.88;;;0.50;;
27758;SDS011;15148;48.972;12.794;2024-02-26T04:49:53;0.52;;;0.52;;
27758;SDS011;15148;48.972;12.794;2024-02-26T04:54:55;0.75;;;0.60;;
27758;SDS011;15148;48.972;12.794;2024-02-26T04:59:57;0.65;;;0.60;;
27758;SDS011;15148;48.972;12.794;2024-02-26T05:04:59;0.70;;;0.70;;
27758;SDS011;15148;48.972;12.794;2024-02-26T05:10:01;0.88;;;0.57;;
27758;SDS011;15148;48.972;12.794;2024-02-26T05:15:03;0.43;;;0.40;;
27758;SDS011;15148;48.972;12.794;2024-02-26T05:20:06;0.65;;;0.60;;
27758;SDS011;15148;48.972;12.794;2024-02-26T05:25:09;0.88;;;0.52;;
27758;SDS011;15148;48.972;12.794;2024-02-26T05:30:11;1.00;;;0.70;;
27758;SDS011;15148;48.972;12.794;2024-02-26T05:35:13;1.13;;;0.88;;
27758;SDS011;15148;48.972;12.794;2024-02-26T05:40:16;1.10;;;1.00;;
27758;SDS011;15148;48.972;12.794;2024-02-26T05:45:18;0.75;;;0.70;;
27758;SDS011;15148;48.972;12.794;2024-02-26T05:50:20;1.08;;;0.60;;
27758;SDS011;15148;48.972;12.794;2024-02-26T05:55:22;2.95;;;0.82;;
27758;SDS011;15148;48.972;12.794;2024-02-26T06:00:24;41.42;;;21.85;;
27758;SDS011;15148;48.972;12.794;2024-02-26T06:05:26;2.78;;;2.13;;
27758;SDS011;15148;48.972;12.794;2024-02-26T06:10:28;5.60;;;2.58;;
27758;SDS011;15148;48.972;12.794;2024-02-26T06:15:30;29.02;;;21.42;;
27758;SDS011;15148;48.972;12.794;2024-02-26T06:20:32;31.35;;;17.05;;
27758;SDS011;15148;48.972;12.794;2024-02-26T06:25:34;19.50;;;12.52;;
27758;SDS011;15148;48.972;12.794;2024-02-26T06:30:36;3.00;;;2.67;;
27758;SDS011;15148;48.972;12.794;2024-02-26T06:35:38;2.50;;;2.15;;
27758;SDS011;15148;48.972;12.794;2024-02-26T06:40:40;1.33;;;1.20;;
27758;SDS011;15148;48.972;12.794;2024-02-26T06:45:42;5.43;;;3.63;;
27758;SDS011;15148;48.972;12.794;2024-02-26T06:50:44;2.75;;;2.55;;
27758;SDS011;15148;48.972;12.794;2024-02-26T06:55:46;2.47;;;1.35;;
27758;SDS011;15148;48.972;12.794;2024-02-26T07:00:49;2.45;;;2.13;;
27758;SDS011;15148;48.972;12.794;2024-02-26T07:05:51;2.17;;;1.58;;
27758;SDS011;15148;48.972;12.794;2024-02-26T07:10:53;6.68;;;3.63;;
27758;SDS011;15148;48.972;12.794;2024-02-26T07:15:55;7.20;;;2.67;;
27758;SDS011;15148;48.972;12.794;2024-02-26T07:20:57;6.18;;;3.42;;
27758;SDS011;15148;48.972;12.794;2024-02-26T07:25:59;6.03;;;4.43;;
27758;SDS011;15148;48.972;12.794;2024-02-26T07:31:01;2.60;;;1.88;;
27758;SDS011;15148;48.972;12.794;2024-02-26T07:36:04;1.98;;;1.30;;
27758;SDS011;15148;48.972;12.794;2024-02-26T07:41:06;1.42;;;1.17;;
27758;SDS011;15148;48.972;12.794;2024-02-26T07:46:10;2.72;;;2.10;;
27758;SDS011;15148;48.972;12.794;2024-02-26T07:51:13;3.22;;;2.38;;
27758;SDS011;15148;48.972;12.794;2024-02-26T07:56:16;4.50;;;2.45;;
27758;SDS011;15148;48.972;12.794;2024-02-26T08:01:18;4.85;;;2.00;;
27758;SDS011;15148;48.972;12.794;2024-02-26T08:06:20;2.83;;;2.13;;
27758;SDS011;15148;48.972;12.794;2024-02-26T08:11:22;2.58;;;1.65;;
27758;SDS011;15148;48.972;12.794;2024-02-26T08:16:24;1.92;;;1.60;;
27758;SDS011;15148;48.972;12.794;2024-02-26T08:21:28;1.60;;;1.50;;
27758;SDS011;15148;48.972;12.794;2024-02-26T08:26:30;3.30;;;2.10;;
27758;SDS011;15148;48.972;12.794;2024-02-26T08:31:32;3.90;;;2.15;;
27758;SDS011;15148;48.972;12.794;2024-02-26T08:36:34;3.63;;;2.85;;
27758;SDS011;15148;48.972;12.794;2024-02-26T08:41:36;3.35;;;2.63;;
27758;SDS011;15148;48.972;12.794;2024-02-26T08:46:38;2.38;;;1.98;;
27758;SDS011;15148;48.972;12.794;2024-02-26T08:51:41;1.65;;;1.50;;
27758;SDS011;15148;48.972;12.794;2024-02-26T08:56:44;1.15;;;1.02;;
27758;SDS011;15148;48.972;12.794;2024-02-26T09:01:46;3.28;;;2.08;;
27758;SDS011;15148;48.972;12.794;2024-02-26T09:06:48;0.90;;;0.90;;
27758;SDS011;15148;48.972;12.794;2024-02-26T09:11:50;1.92;;;1.40;;
27758;SDS011;15148;48.972;12.794;2024-02-26T09:16:53;2.97;;;1.63;;
27758;SDS011;15148;48.972;12.794;2024-02-26T09:21:55;3.00;;;1.75;;
27758;SDS011;15148;48.972;12.794;2024-02-26T09:26:59;2.40;;;2.00;;
27758;SDS011;15148;48.972;12.794;2024-02-26T09:32:01;2.80;;;1.92;;
27758;SDS011;15148;48.972;12.794;2024-02-26T09:37:03;3.55;;;1.92;;
27758;SDS011;15148;48.972;12.794;2024-02-26T09:42:19;8.73;;;6.85;;
27758;SDS011;15148;48.972;12.794;2024-02-26T09:47:21;2.20;;;1.90;;
27758;SDS011;15148;48.972;12.794;2024-02-26T09:52:24;2.40;;;2.10;;
27758;SDS011;15148;48.972;12.794;2024-02-26T09:57:27;3.45;;;2.15;;
27758;SDS011;15148;48.972;12.794;2024-02-26T10:02:29;1.77;;;1.10;;
27758;SDS011;15148;48.972;12.794;2024-02-26T10:07:33;1.40;;;1.20;;
27758;SDS011;15148;48.972;12.794;2024-02-26T10:12:35;2.15;;;1.33;;
27758;SDS011;15148;48.972;12.794;2024-02-26T10:17:37;2.38;;;1.70;;
27758;SDS011;15148;48.972;12.794;2024-02-26T10:22:42;1.25;;;1.10;;
27758;SDS011;15148;48.972;12.794;2024-02-26T10:27:44;3.50;;;1.30;;
27758;SDS011;15148;48.972;12.794;2024-02-26T10:32:48;2.45;;;1.58;;
27758;SDS011;15148;48.972;12.794;2024-02-26T10:37:51;1.35;;;1.10;;
27758;SDS011;15148;48.972;12.794;2024-02-26T10:42:54;1.08;;;0.90;;
27758;SDS011;15148;48.972;12.794;2024-02-26T10:47:56;2.00;;;0.98;;
27758;SDS011;15148;48.972;12.794;2024-02-26T10:52:58;1.00;;;0.90;;
27758;SDS011;15148;48.972;12.794;2024-02-26T10:58:01;1.45;;;0.95;;
27758;SDS011;15148;48.972;12.794;2024-02-26T11:03:04;1.60;;;1.10;;
27758;SDS011;15148;48.972;12.794;2024-02-26T11:08:07;1.25;;;1.02;;
27758;SDS011;15148;48.972;12.794;2024-02-26T11:13:11;1.42;;;1.10;;
27758;SDS011;15148;48.972;12.794;2024-02-26T11:18:16;1.63;;;1.05;;
27758;SDS011;15148;48.972;12.794;2024-02-26T11:23:21;0.80;;;0.80;;
27758;SDS011;15148;48.972;12.794;2024-02-26T11:28:23;1.60;;;1.30;;
27758;SDS011;15148;48.972;12.794;2024-02-26T11:33:27;1.70;;;1.00;;
27758;SDS011;15148;48.972;12.794;2024-02-26T11:38:30;2.55;;;1.08;;
27758;SDS011;15148;48.972;12.794;2024-02-26T11:44:06;0.82;;;0.73;;
27758;SDS011;15148;48.972;12.794;2024-02-26T11:59:47;1.00;;;0.90;;
27758;SDS011;15148;48.972;12.794;2024-02-26T12:04:49;3.17;;;1.80;;
27758;SDS011;15148;48.972;12.794;2024-02-26T12:09:51;2.53;;;1.85;;
27758;SDS011;15148;48.972;12.794;2024-02-26T12:14:53;2.00;;;1.75;;
27758;SDS011;15148;48.972;12.794;2024-02-26T12:20:07;2.65;;;2.10;;
27758;SDS011;15148;48.972;12.794;2024-02-26T12:25:14;2.70;;;2.42;;
27758;SDS011;15148;48.972;12.794;2024-02-26T12:30:16;4.68;;;3.03;;
27758;SDS011;15148;48.972;12.794;2024-02-26T12:35:19;3.78;;;2.20;;
27758;SDS011;15148;48.972;12.794;2024-02-26T12:40:21;3.85;;;2.45;;
27758;SDS011;15148;48.972;12.794;2024-02-26T12:45:24;4.53;;;3.50;;
27758;SDS011;15148;48.972;12.794;2024-02-26T12:50:27;12.15;;;8.57;;
27758;SDS011;15148;48.972;12.794;2024-02-26T12:55:30;5.53;;;3.85;;
27758;SDS011;15148;48.972;12.794;2024-02-26T13:00:36;9.13;;;7.38;;
27758;SDS011;15148;48.972;12.794;2024-02-26T13:05:38;17.77;;;13.63;;
27758;SDS011;15148;48.972;12.794;2024-02-26T13:10:41;14.90;;;11.40;;
27758;SDS011;15148;48.972;12.794;2024-02-26T13:15:44;7.80;;;6.18;;
27758;SDS011;15148;48.972;12.794;2024-02-26T13:20:46;12.43;;;8.45;;
27758;SDS011;15148;48.972;12.794;2024-02-26T13:25:48;10.45;;;7.28;;
27758;SDS011;15148;48.972;12.794;2024-02-26T13:30:56;6.03;;;5.10;;
27758;SDS011;15148;48.972;12.794;2024-02-26T13:35:59;11.85;;;8.82;;
27758;SDS011;15148;48.972;12.794;2024-02-26T13:41:01;13.73;;;9.93;;
27758;SDS011;15148;48.972;12.794;2024-02-26T13:46:04;7.22;;;5.25;;
27758;SDS011;15148;48.972;12.794;2024-02-26T13:51:06;6.10;;;4.88;;
27758;SDS011;15148;48.972;12.794;2024-02-26T13:56:09;7.13;;;6.43;;
27758;SDS011;15148;48.972;12.794;2024-02-26T14:01:11;3.15;;;2.85;;
27758;SDS011;15148;48.972;12.794;2024-02-26T14:06:13;8.45;;;5.10;;
27758;SDS011;15148;48.972;12.794;2024-02-26T14:11:16;10.82;;;6.90;;
27758;SDS011;15148;48.972;12.794;2024-02-26T14:16:18;7.25;;;5.03;;
27758;SDS011;15148;48.972;12.794;2024-02-26T14:21:21;5.47;;;4.38;;
27758;SDS011;15148;48.972;12.794;2024-02-26T14:26:23;6.00;;;3.92;;
27758;SDS011;15148;48.972;12.794;2024-02-26T14:31:25;4.85;;;3.33;;
27758;SDS011;15148;48.972;12.794;2024-02-26T14:36:27;8.15;;;4.13;;
27758;SDS011;15148;48.972;12.794;2024-02-26T14:41:30;6.20;;;4.38;;
27758;SDS011;15148;48.972;12.794;2024-02-26T14:46:33;7.32;;;5.05;;
27758;SDS011;15148;48.972;12.794;2024-02-26T14:51:35;25.45;;;15.25;;
27758;SDS011;15148;48.972;12.794;2024-02-26T14:56:37;6.70;;;5.45;;
27758;SDS011;15148;48.972;12.794;2024-02-26T15:01:39;7.00;;;5.90;;
27758;SDS011;15148;48.972;12.794;2024-02-26T15:06:43;7.63;;;6.05;;
27758;SDS011;15148;48.972;12.794;2024-02-26T15:11:46;7.45;;;6.13;;
27758;SDS011;15148;48.972;12.794;2024-02-26T15:16:48;7.00;;;5.70;;
27758;SDS011;15148;48.972;12.794;2024-02-26T15:21:50;7.60;;;5.57;;
27758;SDS011;15148;48.972;12.794;2024-02-26T15:26:52;6.03;;;4.90;;
27758;SDS011;15148;48.972;12.794;2024-02-26T15:31:54;7.32;;;5.18;;
27758;SDS011;15148;48.972;12.794;2024-02-26T15:36:56;8.85;;;5.10;;
27758;SDS011;15148;48.972;12.794;2024-02-26T15:41:58;6.25;;;5.10;;
27758;SDS011;15148;48.972;12.794;2024-02-26T15:47:04;6.15;;;4.90;;
27758;SDS011;15148;48.972;12.794;2024-02-26T15:52:10;6.63;;;5.22;;
27758;SDS011;15148;48.972;12.794;2024-02-26T15:57:12;5.68;;;4.90;;
27758;SDS011;15148;48.972;12.794;2024-02-26T16:02:14;6.20;;;4.97;;
27758;SDS011;15148;48.972;12.794;2024-02-26T16:07:38;6.53;;;5.15;;
27758;SDS011;15148;48.972;12.794;2024-02-26T16:12:57;7.00;;;5.47;;
27758;SDS011;15148;48.972;12.794;2024-02-26T16:18:01;6.65;;;5.50;;
27758;SDS011;15148;48.972;12.794;2024-02-26T16:23:04;5.72;;;4.93;;
27758;SDS011;15148;48.972;12.794;2024-02-26T16:28:08;8.85;;;5.88;;
27758;SDS011;15148;48.972;12.794;2024-02-26T16:33:10;7.22;;;5.45;;
27758;SDS011;15148;48.972;12.794;2024-02-26T16:38:14;6.45;;;5.07;;
27758;SDS011;15148;48.972;12.794;2024-02-26T16:43:16;37.05;;;18.77;;
27758;SDS011;15148;48.972;12.794;2024-02-26T16:48:18;15.25;;;8.98;;
27758;SDS011;15148;48.972;12.794;2024-02-26T16:53:20;8.02;;;6.80;;
27758;SDS011;15148;48.972;12.794;2024-02-26T16:58:22;9.23;;;6.68;;
27758;SDS011;15148;48.972;12.794;2024-02-26T17:03:26;8.32;;;6.57;;
27758;SDS011;15148;48.972;12.794;2024-02-26T17:08:28;9.32;;;7.75;;
27758;SDS011;15148;48.972;12.794;2024-02-26T17:13:33;10.43;;;7.82;;
27758;SDS011;15148;48.972;12.794;2024-02-26T17:18:36;8.77;;;6.88;;
27758;SDS011;15148;48.972;12.794;2024-02-26T17:23:39;10.95;;;8.10;;
27758;SDS011;15148;48.972;12.794;2024-02-26T17:28:41;28.33;;;22.17;;
27758;SDS011;15148;48.972;12.794;2024-02-26T17:33:43;13.32;;;8.80;;
27758;SDS011;15148;48.972;12.794;2024-02-26T17:38:46;10.60;;;8.27;;
27758;SDS011;15148;48.972;12.794;2024-02-26T17:43:49;8.32;;;6.65;;
27758;SDS011;15148;48.972;12.794;2024-02-26T17:48:51;9.38;;;7.35;;
27758;SDS011;15148;48.972;12.794;2024-02-26T17:53:53;7.90;;;7.10;;
27758;SDS011;15148;48.972;12.794;2024-02-26T17:58:56;11.63;;;9.10;;
27758;SDS011;15148;48.972;12.794;2024-02-26T18:03:57;42.78;;;28.80;;
27758;SDS011;15148;48.972;12.794;2024-02-26T18:08:59;32.70;;;23.00;;
27758;SDS011;15148;48.972;12.794;2024-02-26T18:14:01;11.18;;;8.57;;
27758;SDS011;15148;48.972;12.794;2024-02-26T18:19:03;22.20;;;12.45;;
27758;SDS011;15148;48.972;12.794;2024-02-26T18:24:06;12.43;;;9.75;;
27758;SDS011;15148;48.972;12.794;2024-02-26T18:29:08;5.32;;;4.60;;
27758;SDS011;15148;48.972;12.794;2024-02-26T18:34:10;6.00;;;5.30;;
27758;SDS011;15148;48.972;12.794;2024-02-26T18:39:14;37.22;;;21.10;;
27758;SDS011;15148;48.972;12.794;2024-02-26T18:44:16;15.98;;;8.95;;
27758;SDS011;15148;48.972;12.794;2024-02-26T18:49:18;11.10;;;9.30;;
27758;SDS011;15148;48.972;12.794;2024-02-26T18:54:20;13.02;;;11.63;;
27758;SDS011;15148;48.972;12.794;2024-02-26T18:59:23;7.55;;;6.85;;
27758;SDS011;15148;48.972;12.794;2024-02-26T19:04:25;15.10;;;12.80;;
27758;SDS011;15148;48.972;12.794;2024-02-26T19:09:28;12.50;;;9.55;;
27758;SDS011;15148;48.972;12.794;2024-02-26T19:14:30;5.30;;;4.80;;
27758;SDS011;15148;48.972;12.794;2024-02-26T19:19:32;5.45;;;4.50;;
27758;SDS011;15148;48.972;12.794;2024-02-26T19:24:37;5.28;;;4.25;;
27758;SDS011;15148;48.972;12.794;2024-02-26T19:29:39;6.95;;;5.18;;
27758;SDS011;15148;48.972;12.794;2024-02-26T19:34:41;5.90;;;4.88;;
27758;SDS011;15148;48.972;12.794;2024-02-26T19:39:47;6.30;;;5.40;;
27758;SDS011;15148;48.972;12.794;2024-02-26T19:44:49;6.55;;;5.40;;
27758;SDS011;15148;48.972;12.794;2024-02-26T19:49:54;5.60;;;4.68;;
27758;SDS011;15148;48.972;12.794;2024-02-26T19:54:56;6.95;;;5.40;;
27758;SDS011;15148;48.972;12.794;2024-02-26T19:59:58;7.97;;;5.43;;
27758;SDS011;15148;48.972;12.794;2024-02-26T20:05:00;6.13;;;5.25;;
27758;SDS011;15148;48.972;12.794;2024-02-26T20:10:02;6.40;;;4.97;;
27758;SDS011;15148;48.972;12.794;2024-02-26T20:15:05;6.55;;;4.75;;
27758;SDS011;15148;48.972;12.794;2024-02-26T20:20:07;7.70;;;5.28;;
27758;SDS011;15148;48.972;12.794;2024-02-26T20:25:12;6.50;;;5.07;;
27758;SDS011;15148;48.972;12.794;2024-02-26T20:30:14;7.43;;;4.90;;
27758;SDS011;15148;48.972;12.794;2024-02-26T20:35:17;8.18;;;5.55;;
27758;SDS011;15148;48.972;12.794;2024-02-26T20:40:19;6.30;;;4.90;;
27758;SDS011;15148;48.972;12.794;2024-02-26T20:45:21;7.35;;;5.70;;
27758;SDS011;15148;48.972;12.794;2024-02-26T20:50:29;6.93;;;5.80;;
27758;SDS011;15148;48.972;12.794;2024-02-26T20:55:31;7.75;;;6.22;;
27758;SDS011;15148;48.972;12.794;2024-02-26T21:00:33;7.10;;;5.60;;
27758;SDS011;15148;48.972;12.794;2024-02-26T21:05:35;6.78;;;5.10;;
27758;SDS011;15148;48.972;12.794;2024-02-26T21:10:37;7.68;;;6.43;;
27758;SDS011;15148;48.972;12.794;2024-02-26T21:15:40;7.40;;;6.28;;
27758;SDS011;15148;48.972;12.794;2024-02-26T21:20:42;13.25;;;8.23;;
27758;SDS011;15148;48.972;12.794;2024-02-26T21:25:44;9.07;;;7.07;;
27758;SDS011;15148;48.972;12.794;2024-02-26T21:30:46;15.68;;;11.18;;
27758;SDS011;15148;48.972;12.794;2024-02-26T21:35:48;11.48;;;7.85;;
27758;SDS011;15148;48.972;12.794;2024-02-26T21:40:50;13.35;;;10.85;;
27758;SDS011;15148;48.972;12.794;2024-02-26T21:45:52;10.43;;;9.32;;
27758;SDS011;15148;48.972;12.794;2024-02-26T21:50:54;9.95;;;8.13;;
27758;SDS011;15148;48.972;12.794;2024-02-26T21:55:57;8.35;;;6.03;;
27758;SDS011;15148;48.972;12.794;2024-02-26T22:01:00;13.00;;;10.07;;
27758;SDS011;15148;48.972;12.794;2024-02-26T22:06:02;9.98;;;7.97;;
27758;SDS011;15148;48.972;12.794;2024-02-26T22:11:04;10.55;;;8.15;;
27758;SDS011;15148;48.972;12.794;2024-02-26T22:16:06;8.35;;;7.00;;
27758;SDS011;15148;48.972;12.794;2024-02-26T22:21:08;8.20;;;6.35;;
27758;SDS011;15148;48.972;12.794;2024-02-26T22:26:11;8.10;;;6.30;;
27758;SDS011;15148;48.972;12.794;2024-02-26T22:31:13;8.13;;;7.07;;
27758;SDS011;15148;48.972;12.794;2024-02-26T22:36:16;7.93;;;6.55;;
27758;SDS011;15148;48.972;12.794;2024-02-26T22:41:21;8.27;;;5.18;;
27758;SDS011;15148;48.972;12.794;2024-02-26T22:46:23;8.00;;;5.25;;
27758;SDS011;15148;48.972;12.794;2024-02-26T22:51:26;5.47;;;3.85;;
27758;SDS011;15148;48.972;12.794;2024-02-26T22:56:28;5.80;;;4.13;;
27758;SDS011;15148;48.972;12.794;2024-02-26T23:01:31;5.28;;;4.57;;
27758;SDS011;15148;48.972;12.794;2024-02-26T23:06:33;6.07;;;5.03;;
27758;SDS011;15148;48.972;12.794;2024-02-26T23:11:35;6.55;;;5.38;;
27758;SDS011;15148;48.972;12.794;2024-02-26T23:16:37;6.53;;;5.50;;
27758;SDS011;15148;48.972;12.794;2024-02-26T23:21:39;6.78;;;5.85;;
27758;SDS011;15148;48.972;12.794;2024-02-26T23:26:44;7.28;;;5.35;;
27758;SDS011;15148;48.972;12.794;2024-02-26T23:31:46;7.30;;;6.07;;
27758;SDS011;15148;48.972;12.794;2024-02-26T23:36:48;6.65;;;4.95;;
27758;SDS011;15148;48.972;12.794;2024-02-26T23:41:50;5.85;;;5.18;;
27758;SDS011;15148;48.972;12.794;2024-02-26T23:46:52;4.72;;;4.20;;
27758;SDS011;15148;48.972;12.794;2024-02-26T23:51:54;4.45;;;3.55;;
27758;SDS011;15148;48.972;12.794;2024-02-26T23:56:56;5.38;;;3.90;;
